Archival Weather

Republic

Farmingdale, New York (KFRG)

Report from: Friday, February 23, 2024 5:53 PM EST
Current time: Monday, June 24, 2024 6:48 AM EDT

Current weather – Weather history – Daily summaries
Weather forecast

Temperature6.7°C (44.1°F)
Wind chill5.8°C (42.5°F)
Dew point4.4°C (39.9°F)
Winds 3 kts (1.5 m/s, 3.5 mph) North-Northwest (330°)
Visibility10 mi. (16.1 km)
Clouds Scattered clouds 8,000 ft. (2,438 m)
Ceiling: Overcast 9,500 ft. (2,896 m)
Altimeter29.45 in.Hg (997 mB)
Relative humidity85 %
Density altitude-335 ft. (-102 m)
Sea-level pressure99.7 kPa (997 mB, 29.45 in.Hg)
Remarks Automated weather observing station without precipitation discriminator
Flight conditions Visual Meteorological Conditions
Raw dataKFRG 232253Z 33003KT 10SM SCT080 OVC095 07/04 A2945 RMK AO1 SLP974 T00670044
An error has occurred. This application may no longer respond until reloaded. Reload 🗙